Aracena, Spain
Current Conditions -  °F | °C
As of 2:00 PM on Saturday 25 Oct 2014 (Local Time) from LEZL Reporting Station
Clear Clear  
Wind Chill: 81°   Ceiling: Unl
Heat Index: 81°   Visibility: 6mi
Dew Point: 45°   Wind: 5mph
Humidity: 28%   Direction: 30°NNE
Pressure: 30.03"   Gusts: NA
Location:  37.89°N, 6.56°W
Report Text: LEZL 251200Z 03004KT 010V070 CAVOK 27/07 Q1017 NOSIG
Loading
Personal Weather Stations






























Interactive Weather Map New forecast layout! Learn more

10-Day Weather Forecast

Advertisements
Track Severe Weather on mobile